createdAt,value
2022-08-19T00:00:39.895Z,8.85
2022-08-19T00:03:08.375Z,7.82
2022-08-19T00:05:36.428Z,10.82
2022-08-19T00:08:04.734Z,9.85
2022-08-19T00:10:32.392Z,9.35
2022-08-19T00:12:59.896Z,9.85
2022-08-19T00:15:27.442Z,9.63
2022-08-19T00:17:55.489Z,12.77
2022-08-19T00:22:51.086Z,9.43
2022-08-19T00:25:19.228Z,10.25
2022-08-19T00:28:00.583Z,8.85
2022-08-19T00:30:31.198Z,8.43
2022-08-19T00:32:58.926Z,8.38
2022-08-19T00:35:28.329Z,7.50
2022-08-19T00:37:56.159Z,11.20
2022-08-19T00:40:24.094Z,9.15
2022-08-19T00:42:54.646Z,9.93
2022-08-19T00:45:25.182Z,8.77
2022-08-19T00:47:53.300Z,9.05
2022-08-19T00:50:21.955Z,7.55
2022-08-19T00:52:51.764Z,11.38
2022-08-19T00:55:23.545Z,7.60
2022-08-19T00:58:06.699Z,12.82
2022-08-19T01:00:37.887Z,10.82
2022-08-19T01:03:12.040Z,8.95
2022-08-19T01:05:42.944Z,9.95
2022-08-19T01:08:11.228Z,6.70
2022-08-19T01:13:09.731Z,11.52
2022-08-19T01:15:49.219Z,12.82
2022-08-19T01:18:18.799Z,10.07
2022-08-19T01:20:46.642Z,7.53
2022-08-19T01:23:15.023Z,7.18
2022-08-19T01:25:47.753Z,10.98
2022-08-19T01:28:39.656Z,12.73
2022-08-19T01:31:26.743Z,7.53
2022-08-19T01:33:57.361Z,11.73
2022-08-19T01:36:33.359Z,13.77
2022-08-19T01:39:02.871Z,11.95
2022-08-19T01:41:30.385Z,9.25
2022-08-19T01:44:13.215Z,10.35
2022-08-19T01:46:46.342Z,16.58
2022-08-19T01:49:13.937Z,14.77
2022-08-19T01:51:41.510Z,12.25
2022-08-19T01:54:10.839Z,13.35
2022-08-19T01:56:39.226Z,12.82
2022-08-19T01:59:12.887Z,14.13
2022-08-19T02:01:41.072Z,14.85
2022-08-19T02:06:36.854Z,11.73
2022-08-19T02:09:06.296Z,11.73
2022-08-19T02:11:37.235Z,14.18
2022-08-19T02:14:07.244Z,15.57
2022-08-19T02:16:36.701Z,13.02
2022-08-19T02:19:05.271Z,16.60
2022-08-19T02:21:34.335Z,15.23
2022-08-19T02:24:02.093Z,15.30
2022-08-19T02:26:29.690Z,14.55
2022-08-19T02:28:57.723Z,14.20
2022-08-19T02:31:26.619Z,15.95
2022-08-19T02:33:56.709Z,13.68
2022-08-19T02:36:26.350Z,12.82
2022-08-19T02:38:55.428Z,15.48
2022-08-19T02:41:27.329Z,11.55
2022-08-19T02:44:22.793Z,14.45
2022-08-19T02:46:48.162Z,14.98
2022-08-19T02:49:17.441Z,10.77
2022-08-19T02:51:47.088Z,13.57
2022-08-19T02:54:16.045Z,14.82
2022-08-19T02:56:45.591Z,9.70
2022-08-19T02:59:13.387Z,14.30
2022-08-19T03:01:43.067Z,14.77
2022-08-19T03:04:13.106Z,13.75
2022-08-19T03:06:42.815Z,12.07
2022-08-19T03:09:11.239Z,12.07
2022-08-19T03:11:39.320Z,11.85
2022-08-19T03:14:08.769Z,13.40
2022-08-19T03:16:51.294Z,10.82
2022-08-19T03:19:20.304Z,11.32
2022-08-19T03:21:48.074Z,12.70
2022-08-19T03:24:18.187Z,9.75
2022-08-19T03:26:49.075Z,12.85
2022-08-19T03:29:30.166Z,11.35
2022-08-19T03:32:04.794Z,12.45
2022-08-19T03:34:35.529Z,12.40
2022-08-19T03:37:13.279Z,12.98
2022-08-19T03:39:42.006Z,17.42
2022-08-19T03:42:32.284Z,15.85
2022-08-19T03:44:59.188Z,15.07
2022-08-19T03:47:26.776Z,16.70
2022-08-19T03:49:54.295Z,12.68
2022-08-19T03:52:21.896Z,15.13
2022-08-19T03:54:49.712Z,14.57
2022-08-19T03:57:17.354Z,14.43
2022-08-19T03:59:45.075Z,18.92
2022-08-19T04:02:13.738Z,14.75
2022-08-19T04:04:44.500Z,18.08
2022-08-19T04:07:16.814Z,15.85
2022-08-19T04:09:44.873Z,14.27
2022-08-19T04:12:12.751Z,16.35
2022-08-19T04:14:40.709Z,14.25
2022-08-19T04:17:08.327Z,11.18
2022-08-19T04:19:36.714Z,17.85
2022-08-19T04:22:05.143Z,15.70
2022-08-19T04:24:33.227Z,17.40
2022-08-19T04:29:30.425Z,13.38
2022-08-19T04:31:59.509Z,13.27
2022-08-19T04:34:29.339Z,15.10
2022-08-19T04:36:59.136Z,14.07
2022-08-19T04:40:04.273Z,12.40
2022-08-19T04:42:41.123Z,12.25
2022-08-19T04:45:14.650Z,12.93
2022-08-19T04:47:47.909Z,12.30
2022-08-19T04:50:29.401Z,14.85
2022-08-19T04:52:57.184Z,16.20
2022-08-19T04:57:55.554Z,12.45
2022-08-19T05:00:23.700Z,15.65
2022-08-19T05:05:19.003Z,15.02
2022-08-19T05:07:46.680Z,14.82
2022-08-19T05:10:14.294Z,11.98
2022-08-19T05:12:41.904Z,11.50
2022-08-19T05:15:10.152Z,10.20
2022-08-19T05:20:26.907Z,11.82
2022-08-19T05:22:54.758Z,10.65
2022-08-19T05:27:50.839Z,9.52
2022-08-19T05:30:18.997Z,9.77
2022-08-19T05:33:01.495Z,9.82
2022-08-19T05:35:29.355Z,8.40
2022-08-19T05:38:02.385Z,7.05
2022-08-19T05:40:29.968Z,8.75
2022-08-19T05:42:57.498Z,9.00
2022-08-19T05:45:25.686Z,9.30
2022-08-19T05:47:53.327Z,6.90
2022-08-19T05:50:21.335Z,5.93
2022-08-19T05:52:50.127Z,6.68
2022-08-19T05:55:21.180Z,5.53
2022-08-19T05:57:49.374Z,6.47
2022-08-19T06:02:49.415Z,5.30
2022-08-19T06:07:44.504Z,2.90
2022-08-19T06:10:12.423Z,5.00
2022-08-19T06:12:40.292Z,3.35
2022-08-19T06:15:14.344Z,3.28
2022-08-19T06:17:45.172Z,2.80
2022-08-19T06:20:15.799Z,1.83
2022-08-19T06:22:47.709Z,3.55
2022-08-19T06:25:16.216Z,2.58
2022-08-19T06:30:31.627Z,3.15
2022-08-19T06:32:59.745Z,2.38
2022-08-19T06:35:27.257Z,2.88
2022-08-19T06:37:55.500Z,4.25
2022-08-19T06:40:23.434Z,2.22
2022-08-19T06:42:54.754Z,1.95
2022-08-19T06:45:25.035Z,3.30
2022-08-19T06:48:01.970Z,2.65
2022-08-19T06:50:29.490Z,3.20
2022-08-19T06:52:57.778Z,3.88
2022-08-19T06:55:30.675Z,1.42
2022-08-19T06:58:04.734Z,1.00
2022-08-19T07:00:32.808Z,2.28
2022-08-19T07:03:04.548Z,5.05
2022-08-19T07:05:45.323Z,2.97
2022-08-19T07:10:45.783Z,3.72
2022-08-19T07:13:13.653Z,1.30
2022-08-19T07:15:41.182Z,3.17
2022-08-19T07:18:11.821Z,3.63
2022-08-19T07:20:42.158Z,5.25
2022-08-19T07:23:15.810Z,1.55
2022-08-19T07:25:45.108Z,3.95
2022-08-19T07:28:24.038Z,3.25
2022-08-19T07:30:53.071Z,5.80
2022-08-19T07:33:20.848Z,4.15
2022-08-19T07:35:48.508Z,3.17
2022-08-19T07:38:17.340Z,4.10
2022-08-19T07:40:47.081Z,3.33
2022-08-19T07:43:17.898Z,3.30
2022-08-19T07:45:46.537Z,1.38
2022-08-19T07:50:43.291Z,2.55
2022-08-19T07:53:10.991Z,3.72
2022-08-19T07:55:41.080Z,3.05
2022-08-19T07:58:13.710Z,2.45
2022-08-19T08:00:42.712Z,3.78
2022-08-19T08:03:10.808Z,1.55
2022-08-19T08:08:44.043Z,4.55
2022-08-19T08:11:21.144Z,3.65
2022-08-19T08:14:00.424Z,1.85
2022-08-19T08:16:32.888Z,2.70
2022-08-19T08:19:02.314Z,3.70
2022-08-19T08:21:29.997Z,4.03
2022-08-19T08:23:57.635Z,5.28
2022-08-19T08:26:25.993Z,4.38
2022-08-19T08:28:57.159Z,1.45
2022-08-19T08:31:24.892Z,3.38
2022-08-19T08:33:52.479Z,3.35
2022-08-19T08:36:20.050Z,4.60
2022-08-19T08:38:48.102Z,4.70
2022-08-19T08:41:34.323Z,5.13
2022-08-19T08:44:05.467Z,2.67
2022-08-19T08:46:46.383Z,4.30
2022-08-19T08:49:44.585Z,3.80
2022-08-19T08:52:37.022Z,2.13
2022-08-19T08:55:36.718Z,2.40
2022-08-19T08:58:17.444Z,3.35
2022-08-19T09:00:48.591Z,3.30
2022-08-19T09:03:25.554Z,3.42
2022-08-19T09:06:11.924Z,3.60
2022-08-19T09:09:04.784Z,2.97
2022-08-19T09:12:06.598Z,4.55
2022-08-19T09:14:51.775Z,3.47
2022-08-19T09:17:25.911Z,6.50
2022-08-19T09:20:09.620Z,4.30
2022-08-19T09:22:55.108Z,4.95
2022-08-19T09:25:26.838Z,5.15
2022-08-19T09:28:02.256Z,5.10
2022-08-19T09:30:40.508Z,3.35
2022-08-19T09:33:09.054Z,3.83
2022-08-19T09:35:49.933Z,3.03
2022-08-19T09:38:22.085Z,4.40
2022-08-19T09:40:51.089Z,5.82
2022-08-19T09:43:32.816Z,4.53
2022-08-19T09:46:07.812Z,4.97
2022-08-19T09:48:38.318Z,5.28
2022-08-19T09:51:08.963Z,6.15
2022-08-19T09:53:40.204Z,5.78
2022-08-19T09:56:08.455Z,4.30
2022-08-19T09:58:38.435Z,3.45
2022-08-19T10:01:07.918Z,5.03
2022-08-19T10:03:37.180Z,3.65
2022-08-19T10:06:14.658Z,5.57
2022-08-19T10:08:50.294Z,3.38
2022-08-19T10:11:28.397Z,4.30
2022-08-19T10:14:10.164Z,6.38
2022-08-19T10:16:45.703Z,7.03
2022-08-19T10:19:16.013Z,5.00
2022-08-19T10:22:00.064Z,5.30
2022-08-19T10:24:31.767Z,5.10
2022-08-19T10:27:00.297Z,4.00
2022-08-19T10:29:33.060Z,5.85
2022-08-19T10:32:34.178Z,7.75
2022-08-19T10:35:06.016Z,4.03
2022-08-19T10:37:35.251Z,4.15
2022-08-19T10:40:13.973Z,4.95
2022-08-19T10:42:41.886Z,4.45
2022-08-19T10:45:10.615Z,5.13
2022-08-19T10:47:38.223Z,4.78
2022-08-19T10:50:28.853Z,4.28
2022-08-19T10:52:57.968Z,4.75
2022-08-19T10:55:45.977Z,6.03
2022-08-19T10:58:23.439Z,7.43
2022-08-19T11:00:59.305Z,5.38
2022-08-19T11:03:31.560Z,9.73
2022-08-19T11:06:08.090Z,4.85
2022-08-19T11:08:38.605Z,6.55
2022-08-19T11:11:07.727Z,8.15
2022-08-19T11:13:38.396Z,8.55
2022-08-19T11:16:08.719Z,9.82
2022-08-19T11:18:43.336Z,9.02
2022-08-19T11:21:21.071Z,10.25
2022-08-19T11:23:51.272Z,6.93
2022-08-19T11:26:20.674Z,7.32
2022-08-19T11:28:48.982Z,3.90
2022-08-19T11:31:28.990Z,5.80
2022-08-19T11:33:58.900Z,5.75
2022-08-19T11:36:27.208Z,11.73
2022-08-19T11:38:57.290Z,6.93
2022-08-19T11:41:26.190Z,9.80
2022-08-19T11:43:56.732Z,7.88
2022-08-19T11:46:25.788Z,9.02
2022-08-19T11:48:53.643Z,9.52
2022-08-19T11:53:57.389Z,7.75
2022-08-19T11:56:28.472Z,8.25
2022-08-19T11:58:57.790Z,9.60
2022-08-19T12:01:32.432Z,10.70
2022-08-19T12:04:00.559Z,11.38
2022-08-19T12:06:32.645Z,7.07
2022-08-19T12:09:04.313Z,9.55
2022-08-19T12:11:34.606Z,9.35
2022-08-19T12:14:05.933Z,8.25
2022-08-19T12:16:34.143Z,11.48
2022-08-19T12:19:05.204Z,10.70
2022-08-19T12:21:35.959Z,11.57
2022-08-19T12:24:05.774Z,12.88
2022-08-19T12:26:52.554Z,11.60
2022-08-19T12:29:24.030Z,10.75
2022-08-19T12:31:52.482Z,10.15
2022-08-19T12:34:21.066Z,11.32
2022-08-19T12:36:50.309Z,11.38
2022-08-19T12:39:18.424Z,11.98
2022-08-19T12:41:54.673Z,12.65
2022-08-19T12:44:29.543Z,11.30
2022-08-19T12:47:11.575Z,9.48
2022-08-19T12:49:55.118Z,12.18
2022-08-19T12:52:42.814Z,14.50
2022-08-19T12:55:20.163Z,13.82
2022-08-19T12:57:50.674Z,6.75
2022-08-19T13:00:30.304Z,15.75
2022-08-19T13:02:58.005Z,11.25
2022-08-19T13:05:29.967Z,10.25
2022-08-19T13:08:00.619Z,13.30
2022-08-19T13:10:42.629Z,12.98
2022-08-19T13:13:16.048Z,12.30
2022-08-19T13:16:01.927Z,11.45
2022-08-19T13:18:52.830Z,15.40
2022-08-19T13:21:23.166Z,12.85
2022-08-19T13:23:51.104Z,13.80
2022-08-19T13:26:19.095Z,14.00
2022-08-19T13:32:02.716Z,12.13
2022-08-19T13:34:36.628Z,10.75
2022-08-19T13:37:07.366Z,14.15
2022-08-19T13:39:36.351Z,9.52
2022-08-19T13:42:05.220Z,13.65
2022-08-19T13:44:36.072Z,12.82
2022-08-19T13:47:07.763Z,12.73
2022-08-19T13:49:37.170Z,15.38
2022-08-19T13:52:06.623Z,14.38
2022-08-19T13:54:34.377Z,14.88
2022-08-19T13:57:02.086Z,10.10
2022-08-19T13:59:33.385Z,16.83
2022-08-19T14:02:02.106Z,9.85
2022-08-19T14:04:32.170Z,9.15
2022-08-19T14:07:00.200Z,10.40
2022-08-19T14:09:27.940Z,11.27
2022-08-19T14:11:55.979Z,12.45
2022-08-19T14:14:25.796Z,10.30
2022-08-19T14:16:56.329Z,12.32
2022-08-19T14:19:23.924Z,9.25
2022-08-19T14:21:51.512Z,14.05
2022-08-19T14:24:19.180Z,10.07
2022-08-19T14:26:46.854Z,10.13
2022-08-19T14:31:44.116Z,10.98
2022-08-19T14:34:13.708Z,11.15
2022-08-19T14:36:42.812Z,12.65
2022-08-19T14:39:10.513Z,9.20
2022-08-19T14:41:42.933Z,9.63
2022-08-19T14:44:13.347Z,12.63
2022-08-19T14:46:41.389Z,10.82
2022-08-19T14:49:17.664Z,7.25
2022-08-19T14:51:47.812Z,7.72
2022-08-19T14:54:15.456Z,9.32
2022-08-19T14:56:43.115Z,8.50
2022-08-19T14:59:10.708Z,11.77
2022-08-19T15:01:38.381Z,10.38
2022-08-19T15:04:06.028Z,9.13
2022-08-19T15:09:04.387Z,13.32
2022-08-19T15:11:33.414Z,13.05
2022-08-19T15:14:02.455Z,9.85
2022-08-19T15:16:30.179Z,12.23
2022-08-19T15:21:30.792Z,11.82
2022-08-19T15:23:59.250Z,9.73
2022-08-19T15:26:29.012Z,9.98
2022-08-19T15:28:56.959Z,10.27
2022-08-19T15:31:28.342Z,13.13
2022-08-19T15:33:58.576Z,13.10
2022-08-19T15:36:28.356Z,14.93
2022-08-19T15:38:57.038Z,10.38
2022-08-19T15:41:30.642Z,9.35
2022-08-19T15:44:06.292Z,10.52
2022-08-19T15:46:35.975Z,11.68
2022-08-19T15:49:06.774Z,11.40
2022-08-19T15:51:36.226Z,13.30
2022-08-19T15:54:08.072Z,12.10
2022-08-19T15:57:03.869Z,11.52
2022-08-19T15:59:50.287Z,8.65
2022-08-19T16:02:39.388Z,10.82
2022-08-19T16:05:28.924Z,10.05
2022-08-19T16:07:57.043Z,11.98
2022-08-19T16:10:27.543Z,14.55
2022-08-19T16:12:59.073Z,13.73
2022-08-19T16:15:30.452Z,11.30
2022-08-19T16:18:02.309Z,15.27
2022-08-19T16:20:30.819Z,10.95
2022-08-19T16:23:07.560Z,9.85
2022-08-19T16:25:36.352Z,8.95
2022-08-19T16:28:07.792Z,13.93
2022-08-19T16:30:40.269Z,11.65
2022-08-19T16:33:09.162Z,10.82
2022-08-19T16:35:37.075Z,10.02
2022-08-19T16:40:34.608Z,11.73
2022-08-19T16:43:02.930Z,12.55
2022-08-19T16:45:30.729Z,15.25
2022-08-19T16:50:46.253Z,10.43
2022-08-19T16:55:44.531Z,12.40
2022-08-19T16:58:12.319Z,8.80
2022-08-19T17:00:40.030Z,12.07
2022-08-19T17:03:14.641Z,12.95
2022-08-19T17:05:44.164Z,14.38
2022-08-19T17:08:12.203Z,21.60
2022-08-19T17:13:07.739Z,12.10
2022-08-19T17:15:35.414Z,11.50
2022-08-19T17:18:06.704Z,14.10
2022-08-19T17:20:35.754Z,12.80
2022-08-19T17:23:04.257Z,14.75
2022-08-19T17:25:33.070Z,12.30
2022-08-19T17:28:08.924Z,10.35
2022-08-19T17:30:39.779Z,18.92
2022-08-19T17:33:11.366Z,16.55
2022-08-19T17:35:52.620Z,16.48
2022-08-19T17:38:26.596Z,15.10
2022-08-19T17:41:01.778Z,13.30
2022-08-19T17:43:32.459Z,12.85
2022-08-19T17:46:03.646Z,12.27
2022-08-19T17:48:39.692Z,13.82
2022-08-19T17:51:15.808Z,13.32
2022-08-19T17:53:44.106Z,16.55
2022-08-19T17:56:13.628Z,16.40
2022-08-19T17:58:41.794Z,15.45
2022-08-19T18:01:14.812Z,18.02
2022-08-19T18:03:50.813Z,16.40
2022-08-19T18:06:23.205Z,15.20
2022-08-19T18:08:51.281Z,11.93
2022-08-19T18:16:20.800Z,16.17
2022-08-19T18:18:49.351Z,15.48
2022-08-19T18:21:19.210Z,17.23
2022-08-19T18:23:46.908Z,12.70
2022-08-19T18:26:14.535Z,17.60
2022-08-19T18:28:49.536Z,16.60
2022-08-19T18:31:18.183Z,17.52
2022-08-19T18:33:52.304Z,12.93
2022-08-19T18:36:50.168Z,14.73
2022-08-19T18:39:29.446Z,18.00
2022-08-19T18:42:15.907Z,13.85
2022-08-19T18:45:03.272Z,12.05
2022-08-19T18:48:24.212Z,16.00
2022-08-19T18:51:07.399Z,10.45
2022-08-19T18:53:42.688Z,15.90
2022-08-19T18:56:14.345Z,17.63
2022-08-19T18:58:44.422Z,15.98
2022-08-19T19:01:50.711Z,13.73
2022-08-19T19:04:33.667Z,15.88
2022-08-19T19:07:01.489Z,13.18
2022-08-19T19:09:29.211Z,16.60
2022-08-19T19:11:59.406Z,14.13
2022-08-19T19:14:48.536Z,13.00
2022-08-19T19:17:18.183Z,19.50
2022-08-19T19:19:45.788Z,20.63
2022-08-19T19:22:21.130Z,12.73
2022-08-19T19:24:49.049Z,13.98
2022-08-19T19:29:51.201Z,16.42
2022-08-19T19:32:29.673Z,14.82
2022-08-19T19:34:57.505Z,17.67
2022-08-19T19:37:25.243Z,16.25
2022-08-19T19:39:54.936Z,16.63
2022-08-19T19:42:23.730Z,16.20
2022-08-19T19:44:54.831Z,19.80
2022-08-19T19:47:24.429Z,22.75
2022-08-19T19:50:13.419Z,21.73
2022-08-19T19:52:40.933Z,15.50
2022-08-19T19:55:09.943Z,19.13
2022-08-19T19:57:39.283Z,16.88
2022-08-19T20:00:09.062Z,14.77
2022-08-19T20:02:36.630Z,19.90
2022-08-19T20:05:04.977Z,19.65
2022-08-19T20:07:51.459Z,15.60
2022-08-19T20:10:19.334Z,20.02
2022-08-19T20:12:46.846Z,17.45
2022-08-19T20:15:17.068Z,14.80
2022-08-19T20:17:45.975Z,19.73
2022-08-19T20:20:15.714Z,22.33
2022-08-19T20:22:44.344Z,12.95
2022-08-19T20:25:12.984Z,13.40
2022-08-19T20:27:41.664Z,18.38
2022-08-19T20:30:19.475Z,24.67
2022-08-19T20:32:50.583Z,14.45
2022-08-19T20:35:21.114Z,18.00
2022-08-19T20:37:49.164Z,12.18
2022-08-19T20:42:50.654Z,16.77
2022-08-19T20:45:33.240Z,15.32
2022-08-19T20:48:03.083Z,13.65
2022-08-19T20:50:33.316Z,12.05
2022-08-19T20:53:01.707Z,14.50
2022-08-19T20:55:30.472Z,9.48
2022-08-19T20:57:58.687Z,13.32
2022-08-19T21:02:53.934Z,10.60
2022-08-19T21:05:21.683Z,10.35
2022-08-19T21:07:49.245Z,12.90
2022-08-19T21:10:17.924Z,13.18
2022-08-19T21:12:46.679Z,11.30
2022-08-19T21:15:14.544Z,9.98
2022-08-19T21:17:42.174Z,11.07
2022-08-19T21:20:10.104Z,8.85
2022-08-19T21:22:38.259Z,9.85
2022-08-19T21:25:06.964Z,7.30
2022-08-19T21:27:34.556Z,9.70
2022-08-19T21:30:02.904Z,13.73
2022-08-19T21:32:30.502Z,11.10
2022-08-19T21:34:57.990Z,13.80
2022-08-19T21:37:26.303Z,9.07
2022-08-19T21:39:55.167Z,11.63
2022-08-19T21:42:24.085Z,10.70
2022-08-19T21:44:51.929Z,13.40
2022-08-19T21:47:19.489Z,7.43
2022-08-19T21:49:46.999Z,12.57
2022-08-19T21:52:21.772Z,11.00
2022-08-19T21:54:49.610Z,8.75
2022-08-19T21:57:17.179Z,9.82
2022-08-19T21:59:44.733Z,9.75
2022-08-19T22:02:21.686Z,9.27
2022-08-19T22:04:51.652Z,10.87
2022-08-19T22:07:20.946Z,10.27
2022-08-19T22:09:50.672Z,14.95
2022-08-19T22:12:27.258Z,6.93
2022-08-19T22:14:57.120Z,11.27
2022-08-19T22:17:26.479Z,9.43
2022-08-19T22:19:55.947Z,7.63
2022-08-19T22:22:29.238Z,9.10
2022-08-19T22:25:07.367Z,12.85
2022-08-19T22:30:06.768Z,6.60
2022-08-19T22:32:38.119Z,7.18
2022-08-19T22:35:08.464Z,11.50
2022-08-19T22:37:36.110Z,9.55
2022-08-19T22:40:05.720Z,12.57
2022-08-19T22:42:33.521Z,8.77
2022-08-19T22:45:01.304Z,11.38
2022-08-19T22:47:31.961Z,8.32
2022-08-19T22:50:06.062Z,8.80
2022-08-19T22:52:36.359Z,9.63
2022-08-19T22:55:06.437Z,9.77
2022-08-19T22:57:34.192Z,8.48
2022-08-19T23:00:02.732Z,13.85
2022-08-19T23:02:52.037Z,6.47
2022-08-19T23:05:22.941Z,8.68
2022-08-19T23:07:52.293Z,6.63
2022-08-19T23:10:27.143Z,8.68
2022-08-19T23:12:59.081Z,8.73
2022-08-19T23:15:29.921Z,10.10
2022-08-19T23:18:02.190Z,6.00
2022-08-19T23:20:33.268Z,9.85
2022-08-19T23:23:06.980Z,11.43
2022-08-19T23:25:37.357Z,9.07
2022-08-19T23:28:24.885Z,8.82
2022-08-19T23:30:53.549Z,7.18
2022-08-19T23:33:44.320Z,8.70
2022-08-19T23:36:19.139Z,11.18
2022-08-19T23:38:48.986Z,8.52
2022-08-19T23:41:20.236Z,8.70
2022-08-19T23:43:48.250Z,10.45
2022-08-19T23:46:27.524Z,7.97
2022-08-19T23:48:56.949Z,10.20
2022-08-19T23:51:26.661Z,10.05
2022-08-19T23:53:54.518Z,12.10
2022-08-19T23:56:22.192Z,12.10
2022-08-19T23:58:49.698Z,15.00
